Time;durP1;ratioP1;P1;durP2;ratioP2;P2;SDS_P1;SDS_P2;PMS_P1;PMS_P2;Temp;Humidity;BMP_temperature;BMP_pressure;BME280_temperature;BME280_humidity;BME280_pressure;Samples;Min_cycle;Max_cycle;Signal;HPM_P1;HPM_P2
2023/12/29 00:01:03;;;;;;;20.35;3.92;;;9.90;99.90;;;;;;4250453;27;20047;-71
2023/12/29 00:03:06;;;;;;;23.23;3.90;;;9.90;99.90;;;;;;4250881;27;20058;-72
2023/12/29 00:05:08;;;;;;;15.07;3.58;;;10.00;99.90;;;;;;4251499;27;20039;-71
2023/12/29 00:07:11;;;;;;;22.30;3.45;;;10.00;99.90;;;;;;4251119;27;20051;-72
2023/12/29 00:09:14;;;;;;;23.23;4.05;;;10.00;99.90;;;;;;4251556;27;20039;-72
2023/12/29 00:11:17;;;;;;;17.48;3.58;;;10.00;99.90;;;;;;4250820;27;20039;-72
2023/12/29 00:13:22;;;;;;;20.25;3.75;;;10.10;99.90;;;;;;4250718;27;20057;-72
2023/12/29 00:15:26;;;;;;;17.52;3.58;;;10.10;99.90;;;;;;4251836;27;20126;-71
2023/12/29 00:17:28;;;;;;;15.57;3.20;;;10.10;99.90;;;;;;4250270;27;20047;-71
2023/12/29 00:19:30;;;;;;;21.15;3.17;;;10.20;99.90;;;;;;4249592;27;20049;-71
2023/12/29 00:21:32;;;;;;;20.98;3.83;;;10.20;99.90;;;;;;4249896;27;20067;-72
2023/12/29 00:23:34;;;;;;;20.10;3.47;;;10.20;99.90;;;;;;4249472;27;20501;-71
2023/12/29 00:25:37;;;;;;;27.58;4.07;;;10.20;99.90;;;;;;4249867;27;20443;-71
2023/12/29 00:27:39;;;;;;;19.65;4.22;;;10.30;99.90;;;;;;4249531;27;20047;-71
2023/12/29 00:29:42;;;;;;;13.20;3.65;;;10.30;99.90;;;;;;4249970;27;20065;-72
2023/12/29 00:31:45;;;;;;;21.08;3.63;;;10.30;99.90;;;;;;4249892;27;20047;-72
2023/12/29 00:33:47;;;;;;;17.08;2.63;;;10.30;99.90;;;;;;4250465;27;20067;-71
2023/12/29 00:35:49;;;;;;;14.70;3.28;;;10.40;99.90;;;;;;4250659;27;20043;-72
2023/12/29 00:37:52;;;;;;;13.60;2.95;;;10.40;99.90;;;;;;4260798;27;20043;-71
2023/12/29 00:39:54;;;;;;;18.05;3.60;;;10.40;99.90;;;;;;4266660;27;20043;-72
2023/12/29 00:41:57;;;;;;;20.17;3.50;;;10.50;99.90;;;;;;4266480;27;20043;-71
2023/12/29 00:43:59;;;;;;;21.67;4.05;;;10.40;99.90;;;;;;4266845;27;20596;-72
2023/12/29 00:46:01;;;;;;;19.08;3.40;;;10.40;99.90;;;;;;4267432;27;20106;-72
2023/12/29 00:48:05;;;;;;;16.77;2.83;;;10.50;99.90;;;;;;4263659;27;20039;-72
2023/12/29 00:50:09;;;;;;;19.58;3.83;;;10.50;99.90;;;;;;4250454;27;20043;-71
2023/12/29 00:52:11;;;;;;;24.00;4.60;;;10.50;99.90;;;;;;4250377;27;20428;-71
2023/12/29 00:54:13;;;;;;;17.73;3.60;;;10.50;99.90;;;;;;4249763;27;20107;-71
2023/12/29 00:56:16;;;;;;;13.35;3.15;;;10.50;99.90;;;;;;4249033;27;20100;-71
2023/12/29 00:58:18;;;;;;;19.30;3.83;;;10.50;99.90;;;;;;4249669;27;20071;-71
2023/12/29 01:00:20;;;;;;;23.45;3.53;;;10.60;99.90;;;;;;4249750;27;20078;-71
2023/12/29 01:02:22;;;;;;;17.20;3.72;;;10.60;99.90;;;;;;4249219;27;20132;-71
2023/12/29 01:04:26;;;;;;;18.75;3.33;;;10.60;99.90;;;;;;4249458;27;20096;-72
2023/12/29 01:06:28;;;;;;;21.85;3.85;;;10.60;99.90;;;;;;4249636;27;20043;-72
2023/12/29 01:08:30;;;;;;;18.63;3.25;;;10.60;99.90;;;;;;4250123;27;20051;-71
2023/12/29 01:10:32;;;;;;;16.58;2.95;;;10.60;99.90;;;;;;4232535;28;20527;-70
2023/12/29 01:12:34;;;;;;;23.45;3.40;;;10.60;99.90;;;;;;4250412;27;20039;-71
2023/12/29 01:14:37;;;;;;;21.98;4.30;;;10.60;99.90;;;;;;4250130;27;20123;-71
2023/12/29 01:16:39;;;;;;;19.88;3.97;;;10.60;99.90;;;;;;4249252;27;20039;-70
2023/12/29 01:18:41;;;;;;;20.33;3.70;;;10.60;99.90;;;;;;4249117;27;20115;-71
2023/12/29 01:20:45;;;;;;;24.52;4.57;;;10.60;99.90;;;;;;4248692;27;20054;-69
2023/12/29 01:22:47;;;;;;;19.30;3.72;;;10.60;99.90;;;;;;4249170;27;20070;-70
2023/12/29 01:24:49;;;;;;;23.88;3.38;;;10.60;99.90;;;;;;4248717;27;20459;-70
2023/12/29 01:26:52;;;;;;;22.77;3.65;;;10.60;99.90;;;;;;4249071;27;20130;-69
2023/12/29 01:28:54;;;;;;;16.50;3.53;;;10.70;99.90;;;;;;4249171;27;20548;-70
2023/12/29 01:30:56;;;;;;;18.63;3.55;;;10.70;99.90;;;;;;4249001;27;20039;-70
2023/12/29 01:32:58;;;;;;;23.52;4.10;;;10.70;99.90;;;;;;4249236;27;20045;-72
2023/12/29 01:35:01;;;;;;;25.48;3.20;;;10.60;99.90;;;;;;4249704;27;20039;-72
2023/12/29 01:37:05;;;;;;;17.67;3.22;;;10.60;99.90;;;;;;4253949;27;20043;-72
2023/12/29 01:39:08;;;;;;;21.67;4.60;;;10.60;99.90;;;;;;4267562;27;20042;-71
2023/12/29 01:41:10;;;;;;;20.08;3.85;;;10.60;99.90;;;;;;4267673;27;20045;-71
2023/12/29 01:43:12;;;;;;;24.25;4.28;;;10.60;99.90;;;;;;4266736;27;20047;-72
2023/12/29 01:45:21;;;;;;;15.65;2.83;;;10.60;99.90;;;;;;4266575;27;20042;-72
2023/12/29 01:47:23;;;;;;;18.58;4.03;;;10.60;99.90;;;;;;4247855;27;20527;-70
2023/12/29 01:49:25;;;;;;;16.95;3.60;;;10.60;99.90;;;;;;4249821;27;20041;-72
2023/12/29 01:51:29;;;;;;;20.48;3.88;;;10.70;99.90;;;;;;4249265;27;20103;-72
2023/12/29 01:53:32;;;;;;;19.50;3.90;;;10.60;99.90;;;;;;4248902;27;20051;-72
2023/12/29 01:55:46;;;;;;;17.58;3.17;;;10.70;99.90;;;;;;4248678;27;20127;-72
2023/12/29 01:57:49;;;;;;;24.02;3.83;;;10.70;99.90;;;;;;4248605;27;20043;-72
2023/12/29 01:59:51;;;;;;;17.30;3.55;;;10.70;99.90;;;;;;4251241;27;20108;-72
2023/12/29 02:01:55;;;;;;;18.45;3.55;;;10.70;99.90;;;;;;4250989;27;20409;-71
2023/12/29 02:03:58;;;;;;;18.43;3.93;;;10.70;99.90;;;;;;4251156;27;20157;-71
2023/12/29 02:06:00;;;;;;;20.85;3.63;;;10.70;99.90;;;;;;4250306;27;20043;-71
2023/12/29 02:08:04;;;;;;;22.17;4.07;;;10.70;99.90;;;;;;4249226;27;20126;-71
2023/12/29 02:10:15;;;;;;;21.83;3.88;;;10.70;99.90;;;;;;4249535;27;20156;-69
2023/12/29 02:12:18;;;;;;;18.65;3.40;;;10.70;99.90;;;;;;4249111;27;20114;-70
2023/12/29 02:14:25;;;;;;;18.83;3.53;;;10.80;99.90;;;;;;4249263;27;20051;-71
2023/12/29 02:16:36;;;;;;;20.73;3.20;;;10.80;99.90;;;;;;4249307;27;20058;-72
2023/12/29 02:18:41;;;;;;;16.65;3.50;;;10.70;99.90;;;;;;4250976;27;20150;-71
2023/12/29 02:20:44;;;;;;;19.67;3.72;;;10.80;99.90;;;;;;4253014;27;20081;-72
2023/12/29 02:22:46;;;;;;;16.13;3.20;;;10.80;99.90;;;;;;4254791;27;20047;-71
2023/12/29 02:24:54;;;;;;;18.58;3.65;;;10.80;99.90;;;;;;4255154;27;20413;-72
2023/12/29 02:27:02;;;;;;;21.42;3.55;;;10.80;99.90;;;;;;4255369;27;20043;-72
2023/12/29 02:29:08;;;;;;;17.00;3.92;;;10.80;99.90;;;;;;4252168;27;20060;-70
2023/12/29 02:31:20;;;;;;;18.67;3.55;;;10.80;99.90;;;;;;4250067;27;20074;-71
2023/12/29 02:33:25;;;;;;;15.25;3.25;;;10.80;99.90;;;;;;4248979;27;20075;-71
2023/12/29 02:35:30;;;;;;;24.58;4.32;;;10.80;99.90;;;;;;4248580;28;20067;-72
2023/12/29 02:37:33;;;;;;;15.05;3.10;;;10.80;99.90;;;;;;4230166;28;20039;-70
2023/12/29 02:39:36;;;;;;;17.60;3.35;;;10.80;99.90;;;;;;4248844;27;20043;-71
2023/12/29 02:41:39;;;;;;;23.38;4.10;;;10.80;99.90;;;;;;4247980;28;20513;-72
2023/12/29 02:43:41;;;;;;;21.48;4.38;;;10.80;99.90;;;;;;4248295;28;20051;-71
2023/12/29 02:45:43;;;;;;;22.70;3.60;;;10.80;99.90;;;;;;4248213;28;20047;-71
2023/12/29 02:47:46;;;;;;;16.73;3.17;;;10.80;99.90;;;;;;4247746;28;20444;-71
2023/12/29 02:49:50;;;;;;;20.23;3.20;;;10.80;99.90;;;;;;4248269;28;20043;-71
2023/12/29 02:51:52;;;;;;;20.80;3.28;;;10.80;99.90;;;;;;4248246;28;20226;-71
2023/12/29 02:53:54;;;;;;;20.35;3.63;;;10.70;99.90;;;;;;4229838;28;20082;-71
2023/12/29 02:55:56;;;;;;;18.65;3.75;;;10.70;99.90;;;;;;4248243;28;20075;-71
2023/12/29 02:58:00;;;;;;;19.15;3.70;;;10.70;99.90;;;;;;4230440;28;20458;-71
2023/12/29 03:00:03;;;;;;;14.60;3.17;;;10.70;99.90;;;;;;4248323;28;20082;-72
2023/12/29 03:02:06;;;;;;;24.52;4.55;;;10.70;99.90;;;;;;4248042;27;20232;-71
2023/12/29 03:04:08;;;;;;;19.95;3.88;;;10.70;99.90;;;;;;4230740;28;20074;-72
2023/12/29 03:06:10;;;;;;;14.15;3.30;;;10.70;99.90;;;;;;4250788;28;20144;-72
2023/12/29 03:08:12;;;;;;;20.20;3.67;;;10.70;99.90;;;;;;4251299;28;20074;-73
2023/12/29 03:10:14;;;;;;;20.23;3.28;;;10.70;99.90;;;;;;4250060;28;20067;-72
2023/12/29 03:12:16;;;;;;;19.75;3.03;;;10.70;99.90;;;;;;4230607;28;20040;-71
2023/12/29 03:14:20;;;;;;;20.35;4.40;;;10.70;99.90;;;;;;4247746;28;20054;-72
2023/12/29 03:16:22;;;;;;;24.17;3.60;;;10.60;99.90;;;;;;4247615;28;20142;-72
2023/12/29 03:18:24;;;;;;;27.20;4.75;;;10.70;99.90;;;;;;4247602;28;20071;-71
2023/12/29 03:20:26;;;;;;;23.65;4.00;;;10.70;99.90;;;;;;4247967;28;20122;-72
2023/12/29 03:22:28;;;;;;;20.55;3.88;;;10.70;99.90;;;;;;4247692;27;20135;-72
2023/12/29 03:24:30;;;;;;;21.23;3.40;;;10.70;99.90;;;;;;4247708;28;20051;-71
2023/12/29 03:26:32;;;;;;;21.42;4.05;;;10.70;99.90;;;;;;4247538;28;20439;-71
2023/12/29 03:28:34;;;;;;;21.65;4.30;;;10.70;99.90;;;;;;4248066;28;20043;-71
2023/12/29 03:30:38;;;;;;;19.90;3.28;;;10.80;99.90;;;;;;4249456;27;20100;-71
2023/12/29 03:32:40;;;;;;;14.88;3.67;;;10.80;99.90;;;;;;4251032;27;20067;-71
2023/12/29 03:34:42;;;;;;;22.52;4.05;;;10.80;99.90;;;;;;4251470;27;20058;-71
2023/12/29 03:36:44;;;;;;;23.30;4.15;;;10.80;99.90;;;;;;4254068;27;20054;-72
2023/12/29 03:38:46;;;;;;;22.40;4.50;;;10.80;99.90;;;;;;4270329;27;20039;-71
2023/12/29 03:40:49;;;;;;;20.05;4.10;;;10.80;99.90;;;;;;4270087;27;20047;-72
2023/12/29 03:42:51;;;;;;;21.05;3.65;;;10.80;99.90;;;;;;4268260;27;20039;-70
2023/12/29 03:44:53;;;;;;;22.05;4.32;;;10.80;99.90;;;;;;4268093;27;20129;-71
2023/12/29 03:46:56;;;;;;;19.83;3.65;;;10.80;99.90;;;;;;4265369;27;20058;-72
2023/12/29 03:48:58;;;;;;;20.48;3.85;;;10.80;99.90;;;;;;4251060;27;20069;-72
2023/12/29 03:51:01;;;;;;;22.05;4.85;;;10.80;99.90;;;;;;4250609;27;20039;-70
2023/12/29 03:53:04;;;;;;;25.55;4.43;;;10.80;99.90;;;;;;4250441;27;20043;-71
2023/12/29 03:55:06;;;;;;;18.27;3.90;;;10.80;99.90;;;;;;4250845;27;20059;-71
2023/12/29 03:57:08;;;;;;;20.30;3.63;;;10.80;99.90;;;;;;4250488;27;20046;-71
2023/12/29 03:59:12;;;;;;;21.42;4.10;;;10.80;99.90;;;;;;4250791;27;20078;-72
2023/12/29 04:01:16;;;;;;;18.58;3.22;;;10.80;99.90;;;;;;4250247;27;20055;-72
2023/12/29 04:03:19;;;;;;;20.30;3.75;;;10.90;99.90;;;;;;4249867;27;20051;-73
2023/12/29 04:05:21;;;;;;;20.42;3.72;;;10.80;99.90;;;;;;4249776;27;20074;-72
2023/12/29 04:07:24;;;;;;;22.45;3.92;;;10.90;99.90;;;;;;4250280;27;20047;-72
2023/12/29 04:09:26;;;;;;;16.60;3.78;;;10.80;99.90;;;;;;4250637;27;20071;-72
2023/12/29 04:11:28;;;;;;;20.45;3.88;;;10.90;99.90;;;;;;4232519;28;20466;-72
2023/12/29 04:13:30;;;;;;;19.35;3.95;;;10.90;99.90;;;;;;4250204;27;20051;-72
2023/12/29 04:15:33;;;;;;;25.50;3.88;;;10.90;99.90;;;;;;4249799;27;20434;-72
2023/12/29 04:17:35;;;;;;;18.25;3.70;;;10.90;99.90;;;;;;4231181;28;20076;-72
2023/12/29 04:19:39;;;;;;;21.48;3.72;;;10.90;99.90;;;;;;4249783;27;20074;-72
2023/12/29 04:21:41;;;;;;;18.90;3.50;;;10.90;99.90;;;;;;4249935;27;20122;-72
2023/12/29 04:23:43;;;;;;;18.95;3.58;;;10.90;99.90;;;;;;4250074;27;20065;-72
2023/12/29 04:25:45;;;;;;;16.10;3.60;;;10.90;99.90;;;;;;4250112;27;20043;-72
2023/12/29 04:27:48;;;;;;;16.55;3.67;;;10.90;99.90;;;;;;4249812;27;20486;-72
2023/12/29 04:29:50;;;;;;;17.45;2.78;;;10.90;99.90;;;;;;4249948;27;20039;-72
2023/12/29 04:31:53;;;;;;;15.35;3.17;;;10.90;99.90;;;;;;4251278;27;20039;-72
2023/12/29 04:33:55;;;;;;;21.42;3.78;;;10.90;99.90;;;;;;4252177;27;20047;-72
2023/12/29 04:35:59;;;;;;;19.55;3.13;;;10.90;99.90;;;;;;4253257;27;20043;-73
2023/12/29 04:38:04;;;;;;;18.08;3.38;;;10.90;99.90;;;;;;4265497;27;20107;-72
2023/12/29 04:40:07;;;;;;;14.02;2.85;;;10.90;99.90;;;;;;4267180;27;20053;-72
2023/12/29 04:42:09;;;;;;;21.58;3.17;;;10.90;99.90;;;;;;4266709;27;20129;-72
2023/12/29 04:44:11;;;;;;;23.42;3.60;;;10.90;99.90;;;;;;4266846;27;20088;-72
2023/12/29 04:46:13;;;;;;;18.50;3.58;;;11.00;99.90;;;;;;4265475;27;20122;-72
2023/12/29 04:48:15;;;;;;;17.55;3.95;;;11.00;99.90;;;;;;4249268;27;20383;-72
2023/12/29 04:50:18;;;;;;;26.80;6.03;;;11.00;99.90;;;;;;4249120;27;20055;-72
2023/12/29 04:52:21;;;;;;;23.58;5.43;;;11.00;99.90;;;;;;4231509;28;20054;-72
2023/12/29 04:54:24;;;;;;;21.08;5.38;;;10.90;99.90;;;;;;4249071;27;20481;-72
2023/12/29 04:56:26;;;;;;;21.88;5.65;;;11.00;99.90;;;;;;4249378;27;20112;-72
2023/12/29 04:58:28;;;;;;;23.73;6.88;;;11.00;99.90;;;;;;4249135;27;20047;-72
2023/12/29 05:00:30;;;;;;;22.25;5.80;;;10.90;99.90;;;;;;4249238;27;20071;-71
2023/12/29 05:02:32;;;;;;;18.73;5.53;;;10.90;99.90;;;;;;4248424;27;20504;-72
2023/12/29 05:04:34;;;;;;;26.20;5.53;;;11.00;99.90;;;;;;4248977;27;20035;-72
2023/12/29 05:06:36;;;;;;;23.73;6.03;;;11.00;99.90;;;;;;4249011;27;20050;-72
2023/12/29 05:08:40;;;;;;;17.83;4.40;;;11.00;99.90;;;;;;4249025;27;20051;-72
2023/12/29 05:10:42;;;;;;;25.35;5.20;;;11.00;99.90;;;;;;4249045;27;20520;-72
2023/12/29 05:12:45;;;;;;;22.00;4.57;;;11.00;99.90;;;;;;4249115;27;20043;-71
2023/12/29 05:14:47;;;;;;;19.05;3.80;;;10.90;99.90;;;;;;4249185;27;20047;-71
2023/12/29 05:16:49;;;;;;;17.77;3.55;;;10.90;99.90;;;;;;4248384;27;20050;-70
2023/12/29 05:18:51;;;;;;;19.10;3.30;;;11.00;99.90;;;;;;4230252;28;20039;-72
2023/12/29 05:20:53;;;;;;;14.90;3.28;;;11.00;99.90;;;;;;4248664;27;20047;-72
2023/12/29 05:22:55;;;;;;;18.98;3.67;;;11.00;99.90;;;;;;4248972;27;20045;-72
2023/12/29 05:25:00;;;;;;;18.13;3.72;;;11.00;99.90;;;;;;4248764;27;20054;-72
2023/12/29 05:27:02;;;;;;;20.60;3.83;;;11.00;99.90;;;;;;4231988;28;20047;-72
2023/12/29 05:29:04;;;;;;;20.73;3.72;;;11.00;99.90;;;;;;4250056;27;20558;-71
2023/12/29 05:31:07;;;;;;;17.98;3.13;;;10.90;99.90;;;;;;4248541;27;20561;-72
2023/12/29 05:33:10;;;;;;;20.40;3.67;;;11.00;99.90;;;;;;4248847;27;20047;-71
2023/12/29 05:35:12;;;;;;;20.63;3.22;;;11.00;99.90;;;;;;4248633;27;20046;-72
2023/12/29 05:37:14;;;;;;;20.55;3.70;;;11.00;99.90;;;;;;4254322;27;20107;-72
2023/12/29 05:39:17;;;;;;;15.15;2.72;;;11.00;99.90;;;;;;4247178;27;20126;-72
2023/12/29 05:41:20;;;;;;;20.92;3.42;;;11.00;99.90;;;;;;4265673;27;20084;-72
2023/12/29 05:43:22;;;;;;;18.17;2.67;;;11.00;99.90;;;;;;4265834;27;20038;-72
2023/12/29 05:45:25;;;;;;;18.67;3.80;;;11.00;99.90;;;;;;4255495;27;20043;-73
2023/12/29 05:47:27;;;;;;;14.73;3.40;;;11.00;99.90;;;;;;4248458;27;20122;-72
2023/12/29 05:49:29;;;;;;;20.20;3.53;;;11.10;99.90;;;;;;4248282;27;20542;-72
2023/12/29 05:51:31;;;;;;;16.77;2.88;;;11.00;99.90;;;;;;4248480;27;20502;-72
2023/12/29 05:53:33;;;;;;;16.55;3.20;;;11.00;99.90;;;;;;4247758;27;20055;-74
2023/12/29 05:55:36;;;;;;;17.60;3.78;;;11.00;99.90;;;;;;4248379;27;20059;-73
2023/12/29 05:57:39;;;;;;;18.63;3.65;;;11.00;99.90;;;;;;4249768;27;20381;-73
2023/12/29 05:59:41;;;;;;;19.83;3.63;;;11.00;99.90;;;;;;4249498;27;20050;-72
2023/12/29 06:01:43;;;;;;;17.98;4.15;;;11.10;99.90;;;;;;4249478;27;20072;-73
2023/12/29 06:03:46;;;;;;;18.80;3.83;;;11.00;99.90;;;;;;4248956;27;20043;-73
2023/12/29 06:05:48;;;;;;;22.10;3.55;;;11.10;99.90;;;;;;4248230;27;20047;-72
2023/12/29 06:07:50;;;;;;;16.45;3.60;;;11.10;99.90;;;;;;4248118;27;20049;-72
2023/12/29 06:09:52;;;;;;;16.95;3.20;;;11.10;99.90;;;;;;4248100;27;20045;-73
2023/12/29 06:11:55;;;;;;;18.00;3.38;;;11.00;99.90;;;;;;4248141;27;20481;-72
2023/12/29 06:13:58;;;;;;;17.58;3.08;;;11.00;99.90;;;;;;4247800;27;20049;-73
2023/12/29 06:16:00;;;;;;;21.25;3.85;;;11.10;99.90;;;;;;4247834;27;20128;-73
2023/12/29 06:18:03;;;;;;;20.00;3.75;;;11.10;99.90;;;;;;4248101;27;20046;-72
2023/12/29 06:20:07;;;;;;;19.58;3.28;;;11.00;99.90;;;;;;4248006;27;20490;-72
2023/12/29 06:22:11;;;;;;;19.65;4.07;;;11.10;99.90;;;;;;4247821;27;20070;-73
2023/12/29 06:24:13;;;;;;;18.48;3.65;;;11.00;99.90;;;;;;4248164;27;20123;-72
2023/12/29 06:26:16;;;;;;;17.63;3.00;;;11.10;99.90;;;;;;4247909;27;20095;-72
2023/12/29 06:28:19;;;;;;;19.67;3.55;;;11.00;99.90;;;;;;4247817;27;20126;-73
2023/12/29 06:30:22;;;;;;;20.63;3.35;;;11.10;99.90;;;;;;4247438;27;20462;-72
2023/12/29 06:32:24;;;;;;;19.95;4.05;;;11.00;99.90;;;;;;4247804;27;20047;-72
2023/12/29 06:34:27;;;;;;;21.27;4.22;;;11.00;99.90;;;;;;4247742;27;20198;-72
2023/12/29 06:36:29;;;;;;;24.58;3.58;;;11.00;99.90;;;;;;4247696;27;20129;-71
2023/12/29 06:38:33;;;;;;;15.38;4.05;;;11.10;99.90;;;;;;4264326;27;20500;-72
2023/12/29 06:40:35;;;;;;;20.58;3.13;;;11.00;99.90;;;;;;4265288;27;20137;-73
2023/12/29 06:42:37;;;;;;;24.45;3.80;;;11.10;99.90;;;;;;4264811;27;20069;-72
2023/12/29 06:44:39;;;;;;;15.90;2.97;;;11.10;99.90;;;;;;4252439;27;20092;-72
2023/12/29 06:46:43;;;;;;;18.83;3.05;;;11.00;99.90;;;;;;4247347;28;20043;-72
2023/12/29 06:48:45;;;;;;;11.88;2.60;;;11.00;99.90;;;;;;4247451;27;20043;-72
2023/12/29 06:50:47;;;;;;;13.63;2.55;;;11.00;99.90;;;;;;4247690;28;20043;-72
2023/12/29 06:52:49;;;;;;;16.50;3.40;;;11.00;99.90;;;;;;4247623;27;20098;-73
2023/12/29 06:54:51;;;;;;;13.00;3.17;;;11.10;99.90;;;;;;4247445;27;20047;-72
2023/12/29 06:56:54;;;;;;;15.88;3.03;;;11.10;99.90;;;;;;4247803;28;20078;-73
2023/12/29 06:58:56;;;;;;;19.27;4.03;;;11.10;99.90;;;;;;4247389;28;20067;-72
2023/12/29 07:00:58;;;;;;;16.58;2.50;;;11.10;99.90;;;;;;4247719;28;20387;-73
2023/12/29 07:03:02;;;;;;;18.85;3.45;;;11.10;99.90;;;;;;4247618;28;20545;-73
2023/12/29 07:05:05;;;;;;;22.85;2.42;;;11.10;99.90;;;;;;4249965;27;20067;-72
2023/12/29 07:07:07;;;;;;;15.35;3.20;;;11.10;99.90;;;;;;4252454;27;20397;-73
2023/12/29 07:09:10;;;;;;;14.52;2.58;;;11.10;99.90;;;;;;4252337;27;20057;-73
2023/12/29 07:11:12;;;;;;;17.30;2.92;;;11.10;99.90;;;;;;4251574;27;20121;-73
2023/12/29 07:13:14;;;;;;;15.57;3.17;;;11.10;99.90;;;;;;4251216;27;20047;-72
2023/12/29 07:15:16;;;;;;;15.93;3.03;;;11.10;99.90;;;;;;4250656;27;20151;-73
2023/12/29 07:17:18;;;;;;;16.30;2.50;;;11.10;99.90;;;;;;4250667;27;20082;-73
2023/12/29 07:19:22;;;;;;;15.45;2.78;;;11.10;99.90;;;;;;4250868;27;20039;-72
2023/12/29 07:21:24;;;;;;;16.10;2.88;;;11.10;99.90;;;;;;4250860;27;20054;-72
2023/12/29 07:23:26;;;;;;;13.35;3.03;;;11.10;99.90;;;;;;4250673;27;20506;-73
2023/12/29 07:25:28;;;;;;;13.57;3.38;;;11.00;99.90;;;;;;4250487;27;20118;-72
2023/12/29 07:27:30;;;;;;;14.40;2.47;;;11.00;99.90;;;;;;4250433;27;20043;-73
2023/12/29 07:29:33;;;;;;;12.70;3.50;;;11.00;99.90;;;;;;4249695;27;20073;-73
2023/12/29 07:31:38;;;;;;;15.35;2.95;;;11.00;99.90;;;;;;4250680;27;20574;-73
2023/12/29 07:33:40;;;;;;;12.30;3.10;;;11.00;99.90;;;;;;4250517;27;20049;-72
2023/12/29 07:35:44;;;;;;;12.75;4.10;;;11.00;99.90;;;;;;4250520;27;20108;-73
2023/12/29 07:37:46;;;;;;;21.13;2.97;;;11.00;99.90;;;;;;4260894;27;20499;-72
2023/12/29 07:39:49;;;;;;;13.52;2.88;;;10.90;99.90;;;;;;4267882;27;20500;-73
2023/12/29 07:41:51;;;;;;;24.42;5.13;;;10.90;99.90;;;;;;4267894;27;20099;-73
2023/12/29 07:43:53;;;;;;;18.95;3.63;;;10.90;99.90;;;;;;4267773;27;20055;-70
2023/12/29 07:45:55;;;;;;;10.27;2.13;;;10.90;99.90;;;;;;4235850;28;20052;-71
2023/12/29 07:47:57;;;;;;;18.88;5.15;;;10.80;99.90;;;;;;4234099;28;20065;-70
2023/12/29 07:50:00;;;;;;;14.57;3.17;;;10.80;99.90;;;;;;4233701;28;20047;-70
2023/12/29 07:52:04;;;;;;;15.52;4.55;;;10.80;99.90;;;;;;4215301;28;20071;-71
2023/12/29 07:54:07;;;;;;;17.10;4.30;;;10.70;99.90;;;;;;4215342;28;20076;-71
2023/12/29 07:56:10;;;;;;;11.20;3.17;;;10.70;99.90;;;;;;4233246;28;20086;-71
2023/12/29 07:58:12;;;;;;;16.38;5.18;;;10.70;99.90;;;;;;4233103;28;20048;-71
2023/12/29 08:00:15;;;;;;;16.08;3.40;;;10.70;99.90;;;;;;4246484;27;20075;-70
2023/12/29 08:02:17;;;;;;;10.68;2.63;;;10.60;99.90;;;;;;4250010;27;20070;-70
2023/12/29 08:04:19;;;;;;;13.43;3.08;;;10.60;99.90;;;;;;4250386;27;20047;-71
2023/12/29 08:06:21;;;;;;;15.35;2.50;;;10.60;99.90;;;;;;4249812;27;20086;-72
2023/12/29 08:08:24;;;;;;;19.83;6.43;;;10.60;99.90;;;;;;4250196;27;20516;-71
2023/12/29 08:10:27;;;;;;;21.02;3.75;;;10.60;99.90;;;;;;4232017;28;20051;-72
2023/12/29 08:12:29;;;;;;;14.10;3.20;;;10.60;99.90;;;;;;4249602;27;20043;-71
2023/12/29 08:14:32;;;;;;;15.57;3.58;;;10.60;99.90;;;;;;4249843;27;20043;-71
2023/12/29 08:16:40;;;;;;;15.00;3.10;;;10.60;99.90;;;;;;4249011;27;20254;-71
2023/12/29 08:18:42;;;;;;;16.50;3.03;;;10.60;99.90;;;;;;4250022;27;20086;-71
2023/12/29 08:20:44;;;;;;;13.40;2.75;;;10.60;99.90;;;;;;4232012;28;20508;-71
2023/12/29 08:22:46;;;;;;;18.25;3.70;;;10.60;99.90;;;;;;4250111;27;20082;-71
2023/12/29 08:24:50;;;;;;;20.85;3.33;;;10.60;99.90;;;;;;4250162;27;20043;-71
2023/12/29 08:26:52;;;;;;;20.13;5.95;;;10.60;99.90;;;;;;4249741;27;20043;-70
2023/12/29 08:28:54;;;;;;;28.17;4.60;;;10.70;99.90;;;;;;4250121;27;20431;-70
2023/12/29 08:30:56;;;;;;;20.00;3.30;;;10.70;99.90;;;;;;4251459;27;20047;-71
2023/12/29 08:32:59;;;;;;;19.13;3.45;;;10.70;99.90;;;;;;4252856;27;20092;-71
2023/12/29 08:35:01;;;;;;;15.30;3.80;;;10.70;99.90;;;;;;4251865;27;20047;-69
2023/12/29 08:37:03;;;;;;;22.48;5.05;;;10.70;99.90;;;;;;4254525;27;20421;-70
2023/12/29 08:39:06;;;;;;;16.92;3.92;;;10.70;99.90;;;;;;4250115;27;20043;-69
2023/12/29 08:41:09;;;;;;;21.48;4.68;;;10.70;99.90;;;;;;4267148;27;20039;-72
2023/12/29 08:43:11;;;;;;;17.27;3.03;;;10.80;99.90;;;;;;4267164;27;20054;-70
2023/12/29 08:45:13;;;;;;;16.75;2.88;;;10.80;99.90;;;;;;4251274;27;20043;-70
2023/12/29 08:47:15;;;;;;;14.52;3.38;;;10.80;99.90;;;;;;4249483;27;20095;-69
2023/12/29 08:49:18;;;;;;;10.85;2.10;;;10.80;99.90;;;;;;4249747;27;20494;-70
2023/12/29 08:51:20;;;;;;;14.32;3.25;;;10.90;99.90;;;;;;4250829;27;20120;-71
2023/12/29 08:53:22;;;;;;;11.73;2.97;;;10.90;99.90;;;;;;4251170;27;20129;-71
2023/12/29 08:55:24;;;;;;;12.02;2.47;;;10.90;99.90;;;;;;4250257;27;20145;-71
2023/12/29 08:57:27;;;;;;;15.45;2.92;;;10.90;99.90;;;;;;4250058;27;20443;-70
2023/12/29 08:59:30;;;;;;;14.02;2.90;;;11.00;99.90;;;;;;4249363;27;20070;-71
2023/12/29 09:01:33;;;;;;;17.48;3.30;;;11.00;99.90;;;;;;4249934;27;20077;-71
2023/12/29 09:03:35;;;;;;;14.38;2.75;;;11.10;99.90;;;;;;4251784;27;20134;-70
2023/12/29 09:05:38;;;;;;;16.27;3.10;;;11.10;99.90;;;;;;4231249;28;20139;-72
2023/12/29 09:07:41;;;;;;;14.23;2.88;;;11.20;99.90;;;;;;4248725;27;20062;-69
2023/12/29 09:09:43;;;;;;;15.73;2.78;;;11.20;99.90;;;;;;4239628;27;20542;-69
2023/12/29 09:11:47;;;;;;;15.43;3.97;;;11.20;99.90;;;;;;4237887;27;20063;-70
2023/12/29 09:13:50;;;;;;;12.15;3.05;;;11.30;99.90;;;;;;4240292;27;20039;-70
2023/12/29 09:15:53;;;;;;;14.45;2.72;;;11.30;99.90;;;;;;4251237;27;20045;-69
2023/12/29 09:17:55;;;;;;;20.42;4.38;;;11.30;99.90;;;;;;4243109;27;20039;-69
2023/12/29 09:19:58;;;;;;;23.15;6.65;;;11.30;99.90;;;;;;4234212;28;20075;-71
2023/12/29 09:22:11;;;;;;;15.15;3.35;;;11.30;99.90;;;;;;4238373;27;20046;-69
2023/12/29 09:24:13;;;;;;;16.17;3.58;;;11.40;99.90;;;;;;4239608;27;20047;-69
2023/12/29 09:26:15;;;;;;;17.83;2.85;;;11.40;99.90;;;;;;4235228;27;20066;-70
2023/12/29 09:28:17;;;;;;;20.17;3.15;;;11.40;99.90;;;;;;4243528;27;20047;-71
2023/12/29 09:30:20;;;;;;;18.20;3.38;;;11.30;99.90;;;;;;4249039;27;20039;-70
2023/12/29 09:32:22;;;;;;;18.38;3.25;;;11.40;99.90;;;;;;4233119;28;20047;-71
2023/12/29 09:34:24;;;;;;;16.83;3.63;;;11.40;99.90;;;;;;4249994;27;20043;-70
2023/12/29 09:36:27;;;;;;;15.25;2.85;;;11.30;99.90;;;;;;4248802;27;20481;-69
2023/12/29 09:38:29;;;;;;;19.05;6.05;;;11.40;99.90;;;;;;4264709;27;20050;-69
2023/12/29 09:40:31;;;;;;;13.57;3.72;;;11.50;99.90;;;;;;4265701;27;20050;-70
2023/12/29 09:42:34;;;;;;;18.83;4.05;;;11.50;99.90;;;;;;4265580;27;20538;-69
2023/12/29 09:44:37;;;;;;;13.73;3.22;;;11.60;99.90;;;;;;4250721;27;20042;-69
2023/12/29 09:46:42;;;;;;;13.23;2.83;;;11.60;99.90;;;;;;4248471;27;20477;-70
2023/12/29 09:48:46;;;;;;;19.10;2.85;;;11.70;99.90;;;;;;4248274;27;20043;-70
2023/12/29 09:50:49;;;;;;;;;;;11.70;99.90;;;;;;4248784;27;20043;-71
2023/12/29 09:52:53;;;;;;;11.57;2.55;;;11.70;99.90;;;;;;4248215;27;19919;-70
2023/12/29 09:54:56;;;;;;;18.95;3.47;;;11.80;99.90;;;;;;4248343;27;20471;-70
2023/12/29 09:56:59;;;;;;;19.80;3.15;;;11.90;99.90;;;;;;4230058;28;20429;-71
2023/12/29 09:59:04;;;;;;;14.57;2.67;;;11.90;99.90;;;;;;4247932;27;20043;-71
2023/12/29 10:01:09;;;;;;;11.52;3.03;;;11.90;99.90;;;;;;4248735;27;20474;-69
2023/12/29 10:03:12;;;;;;;15.30;2.92;;;12.00;99.90;;;;;;4248238;27;20500;-71
2023/12/29 10:05:15;;;;;;;14.68;2.70;;;12.00;99.90;;;;;;4248438;27;20047;-70
2023/12/29 10:07:23;;;;;;;14.35;2.63;;;12.00;99.90;;;;;;4247851;27;20084;-70
2023/12/29 10:09:27;;;;;;;13.48;3.05;;;12.00;99.90;;;;;;4248089;27;20081;-71
2023/12/29 10:11:31;;;;;;;15.65;3.70;;;12.10;99.90;;;;;;4248112;27;20118;-71
2023/12/29 10:13:33;;;;;;;11.60;3.45;;;12.10;99.90;;;;;;4248047;27;20130;-72
2023/12/29 10:15:43;;;;;;;12.75;3.08;;;12.10;99.90;;;;;;4247923;27;20043;-71
2023/12/29 10:17:59;;;;;;;12.57;3.17;;;12.20;99.90;;;;;;4248292;27;20074;-70
2023/12/29 10:20:10;;;;;;;18.52;3.47;;;12.30;99.90;;;;;;4248450;27;20538;-72
2023/12/29 10:22:19;;;;;;;12.15;2.80;;;12.40;99.90;;;;;;4248343;27;20051;-71
2023/12/29 10:24:22;;;;;;;13.77;3.22;;;12.40;99.90;;;;;;4230783;28;20058;-70
2023/12/29 10:26:27;;;;;;;17.52;2.40;;;12.50;99.90;;;;;;4250051;27;20047;-71
2023/12/29 10:28:29;;;;;;;16.38;3.30;;;12.50;99.90;;;;;;4250245;27;20696;-71
2023/12/29 10:30:31;;;;;;;11.13;2.90;;;12.40;99.90;;;;;;4249888;27;20043;-73
2023/12/29 10:32:36;;;;;;;13.75;2.45;;;12.30;99.90;;;;;;4232398;28;20593;-71